sensor_id;sensor_type;location;lat;lon;timestamp;P1;durP1;ratioP1;P2;durP2;ratioP2
16804;SDS011;8520;50.102;20.010;2023-08-20T00:00:15;95.82;;;90.22;;
16804;SDS011;8520;50.102;20.010;2023-08-20T00:02:45;97.68;;;91.65;;
16804;SDS011;8520;50.102;20.010;2023-08-20T00:05:14;99.93;;;93.88;;
16804;SDS011;8520;50.102;20.010;2023-08-20T00:07:42;101.55;;;95.43;;
16804;SDS011;8520;50.102;20.010;2023-08-20T00:10:10;105.28;;;99.05;;
16804;SDS011;8520;50.102;20.010;2023-08-20T00:12:38;104.18;;;98.18;;
16804;SDS011;8520;50.102;20.010;2023-08-20T00:15:08;106.75;;;100.00;;
16804;SDS011;8520;50.102;20.010;2023-08-20T00:17:37;107.28;;;100.70;;
16804;SDS011;8520;50.102;20.010;2023-08-20T00:20:06;110.07;;;103.38;;
16804;SDS011;8520;50.102;20.010;2023-08-20T00:22:37;110.50;;;103.45;;
16804;SDS011;8520;50.102;20.010;2023-08-20T00:25:05;109.53;;;103.03;;
16804;SDS011;8520;50.102;20.010;2023-08-20T00:27:34;109.60;;;103.13;;
16804;SDS011;8520;50.102;20.010;2023-08-20T00:30:02;109.22;;;102.88;;
16804;SDS011;8520;50.102;20.010;2023-08-20T00:32:31;110.18;;;103.50;;
16804;SDS011;8520;50.102;20.010;2023-08-20T00:34:59;110.10;;;103.50;;
16804;SDS011;8520;50.102;20.010;2023-08-20T00:37:28;110.28;;;103.78;;
16804;SDS011;8520;50.102;20.010;2023-08-20T00:39:56;109.55;;;103.05;;
16804;SDS011;8520;50.102;20.010;2023-08-20T00:42:24;111.00;;;104.20;;
16804;SDS011;8520;50.102;20.010;2023-08-20T00:44:53;110.72;;;104.00;;
16804;SDS011;8520;50.102;20.010;2023-08-20T00:47:21;111.68;;;104.97;;
16804;SDS011;8520;50.102;20.010;2023-08-20T00:49:50;110.72;;;103.78;;
16804;SDS011;8520;50.102;20.010;2023-08-20T00:52:19;111.13;;;104.28;;
16804;SDS011;8520;50.102;20.010;2023-08-20T00:54:49;111.88;;;105.22;;
16804;SDS011;8520;50.102;20.010;2023-08-20T00:57:17;112.65;;;105.85;;
16804;SDS011;8520;50.102;20.010;2023-08-20T00:59:46;111.20;;;104.60;;
16804;SDS011;8520;50.102;20.010;2023-08-20T01:02:14;111.82;;;105.15;;
16804;SDS011;8520;50.102;20.010;2023-08-20T01:04:43;112.28;;;105.38;;
16804;SDS011;8520;50.102;20.010;2023-08-20T01:07:14;112.80;;;105.72;;
16804;SDS011;8520;50.102;20.010;2023-08-20T01:09:43;112.13;;;105.57;;
16804;SDS011;8520;50.102;20.010;2023-08-20T01:12:16;114.80;;;107.78;;
16804;SDS011;8520;50.102;20.010;2023-08-20T01:14:44;113.65;;;106.95;;
16804;SDS011;8520;50.102;20.010;2023-08-20T01:17:13;115.97;;;108.90;;
16804;SDS011;8520;50.102;20.010;2023-08-20T01:19:43;116.15;;;109.05;;
16804;SDS011;8520;50.102;20.010;2023-08-20T01:22:21;115.60;;;108.60;;
16804;SDS011;8520;50.102;20.010;2023-08-20T01:24:59;117.20;;;110.10;;
16804;SDS011;8520;50.102;20.010;2023-08-20T01:27:34;116.88;;;109.57;;
16804;SDS011;8520;50.102;20.010;2023-08-20T01:30:09;116.63;;;109.55;;
16804;SDS011;8520;50.102;20.010;2023-08-20T01:32:37;117.85;;;110.47;;
16804;SDS011;8520;50.102;20.010;2023-08-20T01:35:11;116.65;;;109.55;;
16804;SDS011;8520;50.102;20.010;2023-08-20T01:37:40;115.97;;;108.95;;
16804;SDS011;8520;50.102;20.010;2023-08-20T01:40:08;118.40;;;110.85;;
16804;SDS011;8520;50.102;20.010;2023-08-20T01:42:37;117.78;;;110.57;;
16804;SDS011;8520;50.102;20.010;2023-08-20T01:45:06;117.93;;;110.75;;
16804;SDS011;8520;50.102;20.010;2023-08-20T01:47:35;119.55;;;112.07;;
16804;SDS011;8520;50.102;20.010;2023-08-20T01:50:04;121.22;;;113.68;;
16804;SDS011;8520;50.102;20.010;2023-08-20T01:52:33;119.40;;;112.10;;
16804;SDS011;8520;50.102;20.010;2023-08-20T01:55:01;121.40;;;113.90;;
16804;SDS011;8520;50.102;20.010;2023-08-20T01:57:31;120.57;;;113.15;;
16804;SDS011;8520;50.102;20.010;2023-08-20T02:00:00;121.65;;;113.95;;
16804;SDS011;8520;50.102;20.010;2023-08-20T02:02:40;120.43;;;112.78;;
16804;SDS011;8520;50.102;20.010;2023-08-20T02:05:08;121.15;;;113.63;;
16804;SDS011;8520;50.102;20.010;2023-08-20T02:07:37;120.82;;;113.32;;
16804;SDS011;8520;50.102;20.010;2023-08-20T02:10:06;120.80;;;113.22;;
16804;SDS011;8520;50.102;20.010;2023-08-20T02:12:34;120.10;;;112.32;;
16804;SDS011;8520;50.102;20.010;2023-08-20T02:15:02;117.70;;;110.50;;
16804;SDS011;8520;50.102;20.010;2023-08-20T02:17:30;117.90;;;110.72;;
16804;SDS011;8520;50.102;20.010;2023-08-20T02:20:00;117.68;;;110.47;;
16804;SDS011;8520;50.102;20.010;2023-08-20T02:22:29;117.82;;;110.53;;
16804;SDS011;8520;50.102;20.010;2023-08-20T02:24:57;117.72;;;110.53;;
16804;SDS011;8520;50.102;20.010;2023-08-20T02:27:25;117.85;;;110.55;;
16804;SDS011;8520;50.102;20.010;2023-08-20T02:29:53;117.38;;;110.28;;
16804;SDS011;8520;50.102;20.010;2023-08-20T02:32:21;118.55;;;111.30;;
16804;SDS011;8520;50.102;20.010;2023-08-20T02:34:50;119.22;;;111.93;;
16804;SDS011;8520;50.102;20.010;2023-08-20T02:37:19;117.75;;;110.55;;
16804;SDS011;8520;50.102;20.010;2023-08-20T02:39:47;118.07;;;110.90;;
16804;SDS011;8520;50.102;20.010;2023-08-20T02:42:14;120.70;;;113.40;;
16804;SDS011;8520;50.102;20.010;2023-08-20T02:44:43;119.97;;;112.47;;
16804;SDS011;8520;50.102;20.010;2023-08-20T02:47:11;120.13;;;112.60;;
16804;SDS011;8520;50.102;20.010;2023-08-20T02:49:39;119.80;;;112.45;;
16804;SDS011;8520;50.102;20.010;2023-08-20T02:52:07;122.10;;;114.63;;
16804;SDS011;8520;50.102;20.010;2023-08-20T02:54:37;121.57;;;113.75;;
16804;SDS011;8520;50.102;20.010;2023-08-20T02:57:05;120.80;;;113.30;;
16804;SDS011;8520;50.102;20.010;2023-08-20T02:59:32;123.30;;;115.50;;
16804;SDS011;8520;50.102;20.010;2023-08-20T03:02:00;122.88;;;115.18;;
16804;SDS011;8520;50.102;20.010;2023-08-20T03:04:30;121.88;;;114.25;;
16804;SDS011;8520;50.102;20.010;2023-08-20T03:06:59;122.50;;;114.95;;
16804;SDS011;8520;50.102;20.010;2023-08-20T03:09:26;122.78;;;115.07;;
16804;SDS011;8520;50.102;20.010;2023-08-20T03:11:56;123.43;;;115.72;;
16804;SDS011;8520;50.102;20.010;2023-08-20T03:14:24;124.63;;;116.55;;
16804;SDS011;8520;50.102;20.010;2023-08-20T03:16:54;124.07;;;116.35;;
16804;SDS011;8520;50.102;20.010;2023-08-20T03:19:22;124.45;;;116.65;;
16804;SDS011;8520;50.102;20.010;2023-08-20T03:21:50;126.43;;;118.38;;
16804;SDS011;8520;50.102;20.010;2023-08-20T03:24:18;127.53;;;119.45;;
16804;SDS011;8520;50.102;20.010;2023-08-20T03:26:46;127.07;;;118.80;;
16804;SDS011;8520;50.102;20.010;2023-08-20T03:29:16;127.47;;;119.15;;
16804;SDS011;8520;50.102;20.010;2023-08-20T03:31:44;128.38;;;120.28;;
16804;SDS011;8520;50.102;20.010;2023-08-20T03:34:12;130.55;;;122.13;;
16804;SDS011;8520;50.102;20.010;2023-08-20T03:36:40;130.18;;;121.65;;
16804;SDS011;8520;50.102;20.010;2023-08-20T03:39:08;128.88;;;120.68;;
16804;SDS011;8520;50.102;20.010;2023-08-20T03:41:36;132.07;;;123.38;;
16804;SDS011;8520;50.102;20.010;2023-08-20T03:44:04;132.07;;;123.60;;
16804;SDS011;8520;50.102;20.010;2023-08-20T03:46:33;130.73;;;122.10;;
16804;SDS011;8520;50.102;20.010;2023-08-20T03:49:01;131.73;;;123.22;;
16804;SDS011;8520;50.102;20.010;2023-08-20T03:51:29;131.90;;;123.13;;
16804;SDS011;8520;50.102;20.010;2023-08-20T03:53:57;129.88;;;121.63;;
16804;SDS011;8520;50.102;20.010;2023-08-20T03:56:25;131.00;;;122.50;;
16804;SDS011;8520;50.102;20.010;2023-08-20T03:58:53;130.77;;;122.28;;
16804;SDS011;8520;50.102;20.010;2023-08-20T04:01:21;129.38;;;121.15;;
16804;SDS011;8520;50.102;20.010;2023-08-20T04:03:51;129.70;;;121.30;;
16804;SDS011;8520;50.102;20.010;2023-08-20T04:06:19;131.65;;;122.75;;
16804;SDS011;8520;50.102;20.010;2023-08-20T04:08:48;130.80;;;122.32;;
16804;SDS011;8520;50.102;20.010;2023-08-20T04:11:17;130.27;;;121.60;;
16804;SDS011;8520;50.102;20.010;2023-08-20T04:13:45;130.38;;;122.00;;
16804;SDS011;8520;50.102;20.010;2023-08-20T04:16:14;128.95;;;120.65;;
16804;SDS011;8520;50.102;20.010;2023-08-20T04:18:42;130.15;;;121.78;;
16804;SDS011;8520;50.102;20.010;2023-08-20T04:21:11;129.82;;;121.35;;
16804;SDS011;8520;50.102;20.010;2023-08-20T04:23:39;130.00;;;121.70;;
16804;SDS011;8520;50.102;20.010;2023-08-20T04:26:08;131.35;;;122.95;;
16804;SDS011;8520;50.102;20.010;2023-08-20T04:28:36;130.55;;;122.13;;
16804;SDS011;8520;50.102;20.010;2023-08-20T04:31:04;132.15;;;123.75;;
16804;SDS011;8520;50.102;20.010;2023-08-20T04:33:54;133.52;;;124.75;;
16804;SDS011;8520;50.102;20.010;2023-08-20T04:36:33;132.88;;;124.13;;
16804;SDS011;8520;50.102;20.010;2023-08-20T04:39:01;133.07;;;124.47;;
16804;SDS011;8520;50.102;20.010;2023-08-20T04:41:34;132.32;;;123.70;;
16804;SDS011;8520;50.102;20.010;2023-08-20T04:44:03;133.85;;;125.07;;
16804;SDS011;8520;50.102;20.010;2023-08-20T04:46:31;132.02;;;123.63;;
16804;SDS011;8520;50.102;20.010;2023-08-20T04:48:59;130.85;;;122.55;;
16804;SDS011;8520;50.102;20.010;2023-08-20T04:51:26;128.43;;;120.32;;
16804;SDS011;8520;50.102;20.010;2023-08-20T04:53:56;128.55;;;120.35;;
16804;SDS011;8520;50.102;20.010;2023-08-20T04:56:24;128.35;;;120.15;;
16804;SDS011;8520;50.102;20.010;2023-08-20T04:58:54;128.63;;;120.22;;
16804;SDS011;8520;50.102;20.010;2023-08-20T05:01:51;127.07;;;118.63;;
16804;SDS011;8520;50.102;20.010;2023-08-20T05:04:33;124.75;;;116.60;;
16804;SDS011;8520;50.102;20.010;2023-08-20T05:07:01;128.30;;;119.28;;
16804;SDS011;8520;50.102;20.010;2023-08-20T05:09:32;135.23;;;123.53;;
16804;SDS011;8520;50.102;20.010;2023-08-20T05:12:00;123.32;;;115.63;;
16804;SDS011;8520;50.102;20.010;2023-08-20T05:14:29;121.15;;;113.43;;
16804;SDS011;8520;50.102;20.010;2023-08-20T05:16:57;119.25;;;111.78;;
16804;SDS011;8520;50.102;20.010;2023-08-20T05:19:25;117.20;;;110.00;;
16804;SDS011;8520;50.102;20.010;2023-08-20T05:21:53;115.32;;;108.28;;
16804;SDS011;8520;50.102;20.010;2023-08-20T05:24:27;116.10;;;108.90;;
16804;SDS011;8520;50.102;20.010;2023-08-20T05:27:07;113.90;;;106.90;;
16804;SDS011;8520;50.102;20.010;2023-08-20T05:29:36;114.07;;;107.38;;
16804;SDS011;8520;50.102;20.010;2023-08-20T05:32:05;113.47;;;106.55;;
16804;SDS011;8520;50.102;20.010;2023-08-20T05:34:33;111.80;;;104.97;;
16804;SDS011;8520;50.102;20.010;2023-08-20T05:37:01;110.03;;;103.45;;
16804;SDS011;8520;50.102;20.010;2023-08-20T05:39:30;109.18;;;102.57;;
16804;SDS011;8520;50.102;20.010;2023-08-20T05:42:04;107.60;;;101.07;;
16804;SDS011;8520;50.102;20.010;2023-08-20T05:44:34;104.50;;;98.50;;
16804;SDS011;8520;50.102;20.010;2023-08-20T05:47:02;102.07;;;96.07;;
16804;SDS011;8520;50.102;20.010;2023-08-20T05:49:32;102.40;;;96.70;;
16804;SDS011;8520;50.102;20.010;2023-08-20T05:52:00;101.45;;;95.57;;
16804;SDS011;8520;50.102;20.010;2023-08-20T05:54:29;98.38;;;92.78;;
16804;SDS011;8520;50.102;20.010;2023-08-20T05:56:58;95.20;;;90.00;;
16804;SDS011;8520;50.102;20.010;2023-08-20T05:59:26;94.60;;;89.30;;
16804;SDS011;8520;50.102;20.010;2023-08-20T06:01:55;93.75;;;88.53;;
16804;SDS011;8520;50.102;20.010;2023-08-20T06:04:23;92.32;;;87.15;;
16804;SDS011;8520;50.102;20.010;2023-08-20T06:06:51;92.65;;;87.13;;
16804;SDS011;8520;50.102;20.010;2023-08-20T06:09:19;90.50;;;85.20;;
16804;SDS011;8520;50.102;20.010;2023-08-20T06:11:47;86.95;;;82.35;;
16804;SDS011;8520;50.102;20.010;2023-08-20T06:14:15;84.80;;;80.20;;
16804;SDS011;8520;50.102;20.010;2023-08-20T06:16:43;83.78;;;79.18;;
16804;SDS011;8520;50.102;20.010;2023-08-20T06:19:13;80.68;;;76.18;;
16804;SDS011;8520;50.102;20.010;2023-08-20T06:21:42;82.30;;;77.80;;
16804;SDS011;8520;50.102;20.010;2023-08-20T06:24:09;76.75;;;72.45;;
16804;SDS011;8520;50.102;20.010;2023-08-20T06:26:37;75.57;;;71.47;;
16804;SDS011;8520;50.102;20.010;2023-08-20T06:29:05;74.40;;;70.40;;
16804;SDS011;8520;50.102;20.010;2023-08-20T06:31:33;71.35;;;67.45;;
16804;SDS011;8520;50.102;20.010;2023-08-20T06:34:01;69.53;;;65.78;;
16804;SDS011;8520;50.102;20.010;2023-08-20T06:36:30;68.32;;;64.65;;
16804;SDS011;8520;50.102;20.010;2023-08-20T06:38:59;65.72;;;62.30;;
16804;SDS011;8520;50.102;20.010;2023-08-20T06:41:26;65.57;;;62.13;;
16804;SDS011;8520;50.102;20.010;2023-08-20T06:43:54;65.97;;;62.35;;
16804;SDS011;8520;50.102;20.010;2023-08-20T06:46:23;64.15;;;60.67;;
16804;SDS011;8520;50.102;20.010;2023-08-20T06:48:51;59.97;;;56.42;;
16804;SDS011;8520;50.102;20.010;2023-08-20T06:51:20;58.85;;;55.50;;
16804;SDS011;8520;50.102;20.010;2023-08-20T06:53:49;57.95;;;54.75;;
16804;SDS011;8520;50.102;20.010;2023-08-20T06:56:17;55.80;;;53.00;;
16804;SDS011;8520;50.102;20.010;2023-08-20T06:58:46;53.00;;;50.10;;
16804;SDS011;8520;50.102;20.010;2023-08-20T07:01:14;52.70;;;49.90;;
16804;SDS011;8520;50.102;20.010;2023-08-20T07:03:42;49.13;;;46.50;;
16804;SDS011;8520;50.102;20.010;2023-08-20T07:06:10;47.47;;;44.88;;
16804;SDS011;8520;50.102;20.010;2023-08-20T07:08:41;47.67;;;45.20;;
16804;SDS011;8520;50.102;20.010;2023-08-20T07:11:10;47.97;;;44.97;;
16804;SDS011;8520;50.102;20.010;2023-08-20T07:13:38;46.17;;;43.78;;
16804;SDS011;8520;50.102;20.010;2023-08-20T07:16:06;45.03;;;42.67;;
16804;SDS011;8520;50.102;20.010;2023-08-20T07:18:34;44.53;;;42.03;;
16804;SDS011;8520;50.102;20.010;2023-08-20T07:21:02;43.15;;;40.85;;
16804;SDS011;8520;50.102;20.010;2023-08-20T07:23:30;42.63;;;40.33;;
16804;SDS011;8520;50.102;20.010;2023-08-20T07:26:04;41.75;;;39.30;;
16804;SDS011;8520;50.102;20.010;2023-08-20T07:28:34;43.42;;;40.65;;
16804;SDS011;8520;50.102;20.010;2023-08-20T07:31:19;41.80;;;39.42;;
16804;SDS011;8520;50.102;20.010;2023-08-20T07:33:47;41.47;;;39.08;;
16804;SDS011;8520;50.102;20.010;2023-08-20T07:36:15;38.63;;;36.63;;
16804;SDS011;8520;50.102;20.010;2023-08-20T07:38:43;39.67;;;37.40;;
16804;SDS011;8520;50.102;20.010;2023-08-20T07:41:11;39.58;;;37.08;;
16804;SDS011;8520;50.102;20.010;2023-08-20T07:43:40;38.10;;;36.00;;
16804;SDS011;8520;50.102;20.010;2023-08-20T07:46:09;37.25;;;35.08;;
16804;SDS011;8520;50.102;20.010;2023-08-20T07:48:37;36.03;;;33.97;;
16804;SDS011;8520;50.102;20.010;2023-08-20T07:51:05;34.85;;;32.67;;
16804;SDS011;8520;50.102;20.010;2023-08-20T07:53:33;35.22;;;33.20;;
16804;SDS011;8520;50.102;20.010;2023-08-20T07:56:01;34.53;;;32.33;;
16804;SDS011;8520;50.102;20.010;2023-08-20T07:58:29;34.45;;;32.60;;
16804;SDS011;8520;50.102;20.010;2023-08-20T08:00:58;34.83;;;32.85;;
16804;SDS011;8520;50.102;20.010;2023-08-20T08:03:26;32.22;;;30.42;;
16804;SDS011;8520;50.102;20.010;2023-08-20T08:05:54;28.85;;;27.15;;
16804;SDS011;8520;50.102;20.010;2023-08-20T08:08:22;29.02;;;27.30;;
16804;SDS011;8520;50.102;20.010;2023-08-20T08:10:51;28.45;;;26.75;;
16804;SDS011;8520;50.102;20.010;2023-08-20T08:13:19;28.33;;;26.60;;
16804;SDS011;8520;50.102;20.010;2023-08-20T08:15:48;28.20;;;26.67;;
16804;SDS011;8520;50.102;20.010;2023-08-20T08:18:18;29.15;;;27.52;;
16804;SDS011;8520;50.102;20.010;2023-08-20T08:20:46;27.63;;;25.88;;
16804;SDS011;8520;50.102;20.010;2023-08-20T08:23:14;26.55;;;24.85;;
16804;SDS011;8520;50.102;20.010;2023-08-20T08:25:42;25.58;;;23.98;;
16804;SDS011;8520;50.102;20.010;2023-08-20T08:28:10;23.90;;;22.60;;
16804;SDS011;8520;50.102;20.010;2023-08-20T08:30:38;24.08;;;22.60;;
16804;SDS011;8520;50.102;20.010;2023-08-20T08:33:06;24.05;;;22.55;;
16804;SDS011;8520;50.102;20.010;2023-08-20T08:35:36;24.00;;;22.45;;
16804;SDS011;8520;50.102;20.010;2023-08-20T08:38:04;23.67;;;22.33;;
16804;SDS011;8520;50.102;20.010;2023-08-20T08:40:32;22.48;;;21.15;;
16804;SDS011;8520;50.102;20.010;2023-08-20T08:43:00;22.55;;;21.25;;
16804;SDS011;8520;50.102;20.010;2023-08-20T08:45:29;21.40;;;20.20;;
16804;SDS011;8520;50.102;20.010;2023-08-20T08:48:01;22.67;;;21.38;;
16804;SDS011;8520;50.102;20.010;2023-08-20T08:50:30;21.17;;;19.90;;
16804;SDS011;8520;50.102;20.010;2023-08-20T08:53:00;21.90;;;20.50;;
16804;SDS011;8520;50.102;20.010;2023-08-20T08:55:28;20.45;;;19.17;;
16804;SDS011;8520;50.102;20.010;2023-08-20T08:57:56;19.25;;;17.52;;
16804;SDS011;8520;50.102;20.010;2023-08-20T09:00:24;17.17;;;16.13;;
16804;SDS011;8520;50.102;20.010;2023-08-20T09:02:52;17.70;;;16.65;;
16804;SDS011;8520;50.102;20.010;2023-08-20T09:05:20;16.92;;;15.82;;
16804;SDS011;8520;50.102;20.010;2023-08-20T09:07:49;17.42;;;16.33;;
16804;SDS011;8520;50.102;20.010;2023-08-20T09:10:24;16.70;;;15.70;;
16804;SDS011;8520;50.102;20.010;2023-08-20T09:12:53;17.10;;;15.90;;
16804;SDS011;8520;50.102;20.010;2023-08-20T09:15:21;16.42;;;15.45;;
16804;SDS011;8520;50.102;20.010;2023-08-20T09:17:49;16.75;;;15.68;;
16804;SDS011;8520;50.102;20.010;2023-08-20T09:20:18;17.38;;;16.10;;
16804;SDS011;8520;50.102;20.010;2023-08-20T09:22:48;16.30;;;15.35;;
16804;SDS011;8520;50.102;20.010;2023-08-20T09:25:16;16.40;;;15.27;;
16804;SDS011;8520;50.102;20.010;2023-08-20T09:27:45;15.68;;;14.70;;
16804;SDS011;8520;50.102;20.010;2023-08-20T09:30:17;16.48;;;15.38;;
16804;SDS011;8520;50.102;20.010;2023-08-20T09:32:45;16.20;;;15.10;;
16804;SDS011;8520;50.102;20.010;2023-08-20T09:35:17;15.32;;;14.45;;
16804;SDS011;8520;50.102;20.010;2023-08-20T09:37:45;15.68;;;14.57;;
16804;SDS011;8520;50.102;20.010;2023-08-20T09:40:13;14.73;;;13.82;;
16804;SDS011;8520;50.102;20.010;2023-08-20T09:42:41;13.98;;;13.07;;
16804;SDS011;8520;50.102;20.010;2023-08-20T09:45:11;14.93;;;13.93;;
16804;SDS011;8520;50.102;20.010;2023-08-20T09:47:39;15.90;;;15.00;;
16804;SDS011;8520;50.102;20.010;2023-08-20T09:50:09;15.13;;;14.23;;
16804;SDS011;8520;50.102;20.010;2023-08-20T09:52:39;14.43;;;13.52;;
16804;SDS011;8520;50.102;20.010;2023-08-20T09:55:08;15.40;;;14.35;;
16804;SDS011;8520;50.102;20.010;2023-08-20T09:57:37;14.25;;;13.25;;
16804;SDS011;8520;50.102;20.010;2023-08-20T10:00:08;13.10;;;12.25;;
16804;SDS011;8520;50.102;20.010;2023-08-20T10:02:41;12.90;;;12.20;;
16804;SDS011;8520;50.102;20.010;2023-08-20T10:05:10;13.68;;;12.80;;
16804;SDS011;8520;50.102;20.010;2023-08-20T10:07:38;13.80;;;13.02;;
16804;SDS011;8520;50.102;20.010;2023-08-20T10:10:07;14.10;;;13.30;;
16804;SDS011;8520;50.102;20.010;2023-08-20T10:12:36;14.68;;;13.77;;
16804;SDS011;8520;50.102;20.010;2023-08-20T10:15:07;13.45;;;12.70;;
16804;SDS011;8520;50.102;20.010;2023-08-20T10:17:36;14.18;;;13.18;;
16804;SDS011;8520;50.102;20.010;2023-08-20T10:20:07;14.48;;;13.18;;
16804;SDS011;8520;50.102;20.010;2023-08-20T10:22:36;13.88;;;13.00;;
16804;SDS011;8520;50.102;20.010;2023-08-20T10:25:05;14.77;;;13.60;;
16804;SDS011;8520;50.102;20.010;2023-08-20T10:27:34;14.90;;;13.90;;
16804;SDS011;8520;50.102;20.010;2023-08-20T10:30:07;14.65;;;13.45;;
16804;SDS011;8520;50.102;20.010;2023-08-20T10:32:44;15.18;;;13.98;;
16804;SDS011;8520;50.102;20.010;2023-08-20T10:35:15;13.93;;;13.02;;
16804;SDS011;8520;50.102;20.010;2023-08-20T10:38:05;14.45;;;13.65;;
16804;SDS011;8520;50.102;20.010;2023-08-20T10:40:52;13.70;;;12.80;;
16804;SDS011;8520;50.102;20.010;2023-08-20T10:43:26;14.02;;;13.20;;
16804;SDS011;8520;50.102;20.010;2023-08-20T10:46:07;14.68;;;13.57;;
16804;SDS011;8520;50.102;20.010;2023-08-20T10:48:37;13.07;;;12.27;;
16804;SDS011;8520;50.102;20.010;2023-08-20T10:51:07;14.55;;;13.65;;
16804;SDS011;8520;50.102;20.010;2023-08-20T10:53:35;14.30;;;13.50;;
16804;SDS011;8520;50.102;20.010;2023-08-20T10:56:07;15.38;;;14.27;;
16804;SDS011;8520;50.102;20.010;2023-08-20T10:58:35;14.43;;;13.45;;
16804;SDS011;8520;50.102;20.010;2023-08-20T11:01:15;13.98;;;12.88;;
16804;SDS011;8520;50.102;20.010;2023-08-20T11:03:44;14.30;;;13.38;;
16804;SDS011;8520;50.102;20.010;2023-08-20T11:06:13;14.38;;;13.20;;
16804;SDS011;8520;50.102;20.010;2023-08-20T11:08:41;13.48;;;12.63;;
16804;SDS011;8520;50.102;20.010;2023-08-20T11:11:10;13.38;;;12.57;;
16804;SDS011;8520;50.102;20.010;2023-08-20T11:13:38;13.75;;;12.85;;
16804;SDS011;8520;50.102;20.010;2023-08-20T11:16:06;12.20;;;11.50;;
16804;SDS011;8520;50.102;20.010;2023-08-20T11:18:35;13.32;;;12.40;;
16804;SDS011;8520;50.102;20.010;2023-08-20T11:21:03;13.13;;;12.23;;
16804;SDS011;8520;50.102;20.010;2023-08-20T11:23:33;13.20;;;12.40;;
16804;SDS011;8520;50.102;20.010;2023-08-20T11:26:01;12.82;;;11.95;;
16804;SDS011;8520;50.102;20.010;2023-08-20T11:28:29;13.70;;;13.00;;
16804;SDS011;8520;50.102;20.010;2023-08-20T11:30:57;12.90;;;12.10;;
16804;SDS011;8520;50.102;20.010;2023-08-20T11:33:25;13.05;;;12.15;;
16804;SDS011;8520;50.102;20.010;2023-08-20T11:35:54;13.70;;;12.90;;
16804;SDS011;8520;50.102;20.010;2023-08-20T11:38:23;14.38;;;13.48;;
16804;SDS011;8520;50.102;20.010;2023-08-20T11:40:53;13.88;;;13.07;;
16804;SDS011;8520;50.102;20.010;2023-08-20T11:43:21;13.48;;;12.57;;
16804;SDS011;8520;50.102;20.010;2023-08-20T11:45:49;12.98;;;12.27;;
16804;SDS011;8520;50.102;20.010;2023-08-20T11:48:17;13.73;;;12.82;;
16804;SDS011;8520;50.102;20.010;2023-08-20T11:50:45;13.48;;;12.68;;
16804;SDS011;8520;50.102;20.010;2023-08-20T11:53:13;13.98;;;12.88;;
16804;SDS011;8520;50.102;20.010;2023-08-20T11:55:41;14.38;;;13.50;;
16804;SDS011;8520;50.102;20.010;2023-08-20T11:58:11;13.05;;;12.23;;
16804;SDS011;8520;50.102;20.010;2023-08-20T12:00:39;14.18;;;12.95;;
16804;SDS011;8520;50.102;20.010;2023-08-20T12:03:09;13.50;;;12.70;;
16804;SDS011;8520;50.102;20.010;2023-08-20T12:05:40;13.32;;;12.40;;
16804;SDS011;8520;50.102;20.010;2023-08-20T12:08:08;13.77;;;12.98;;
16804;SDS011;8520;50.102;20.010;2023-08-20T12:10:42;13.65;;;12.65;;
16804;SDS011;8520;50.102;20.010;2023-08-20T12:13:12;13.80;;;12.93;;
16804;SDS011;8520;50.102;20.010;2023-08-20T12:15:39;15.32;;;14.10;;
16804;SDS011;8520;50.102;20.010;2023-08-20T12:18:07;13.65;;;12.73;;
16804;SDS011;8520;50.102;20.010;2023-08-20T12:20:37;14.40;;;13.27;;
16804;SDS011;8520;50.102;20.010;2023-08-20T12:23:05;15.15;;;14.15;;
16804;SDS011;8520;50.102;20.010;2023-08-20T12:25:34;14.55;;;13.38;;
16804;SDS011;8520;50.102;20.010;2023-08-20T12:28:02;15.05;;;13.85;;
16804;SDS011;8520;50.102;20.010;2023-08-20T12:30:32;13.50;;;12.63;;
16804;SDS011;8520;50.102;20.010;2023-08-20T12:33:04;12.73;;;11.98;;
16804;SDS011;8520;50.102;20.010;2023-08-20T12:35:33;13.32;;;12.45;;
16804;SDS011;8520;50.102;20.010;2023-08-20T12:38:01;12.98;;;12.25;;
16804;SDS011;8520;50.102;20.010;2023-08-20T12:40:30;12.70;;;11.85;;
16804;SDS011;8520;50.102;20.010;2023-08-20T12:42:58;13.27;;;12.38;;
16804;SDS011;8520;50.102;20.010;2023-08-20T12:45:26;13.15;;;12.30;;
16804;SDS011;8520;50.102;20.010;2023-08-20T12:47:55;13.60;;;12.90;;
16804;SDS011;8520;50.102;20.010;2023-08-20T12:50:27;13.48;;;12.68;;
16804;SDS011;8520;50.102;20.010;2023-08-20T12:52:55;13.13;;;12.15;;
16804;SDS011;8520;50.102;20.010;2023-08-20T12:55:23;13.88;;;12.75;;
16804;SDS011;8520;50.102;20.010;2023-08-20T12:57:52;12.82;;;11.93;;
16804;SDS011;8520;50.102;20.010;2023-08-20T13:00:20;11.90;;;11.20;;
16804;SDS011;8520;50.102;20.010;2023-08-20T13:02:48;11.88;;;11.18;;
16804;SDS011;8520;50.102;20.010;2023-08-20T13:05:18;12.15;;;11.45;;
16804;SDS011;8520;50.102;20.010;2023-08-20T13:07:46;11.73;;;10.93;;
16804;SDS011;8520;50.102;20.010;2023-08-20T13:10:14;11.85;;;11.15;;
16804;SDS011;8520;50.102;20.010;2023-08-20T13:12:43;12.85;;;12.13;;
16804;SDS011;8520;50.102;20.010;2023-08-20T13:15:16;11.27;;;10.68;;
16804;SDS011;8520;50.102;20.010;2023-08-20T13:17:45;12.45;;;11.65;;
16804;SDS011;8520;50.102;20.010;2023-08-20T13:20:13;12.18;;;11.30;;
16804;SDS011;8520;50.102;20.010;2023-08-20T13:22:42;12.10;;;11.40;;
16804;SDS011;8520;50.102;20.010;2023-08-20T13:25:10;11.77;;;10.98;;
16804;SDS011;8520;50.102;20.010;2023-08-20T13:27:38;12.30;;;11.38;;
16804;SDS011;8520;50.102;20.010;2023-08-20T13:30:06;11.98;;;11.27;;
16804;SDS011;8520;50.102;20.010;2023-08-20T13:32:34;11.90;;;11.20;;
16804;SDS011;8520;50.102;20.010;2023-08-20T13:35:03;11.48;;;10.52;;
16804;SDS011;8520;50.102;20.010;2023-08-20T13:37:31;10.77;;;10.07;;
16804;SDS011;8520;50.102;20.010;2023-08-20T13:40:01;11.15;;;10.38;;
16804;SDS011;8520;50.102;20.010;2023-08-20T13:42:30;9.88;;;9.38;;
16804;SDS011;8520;50.102;20.010;2023-08-20T13:44:58;11.02;;;10.23;;
16804;SDS011;8520;50.102;20.010;2023-08-20T13:47:26;10.55;;;10.00;;
16804;SDS011;8520;50.102;20.010;2023-08-20T13:49:54;10.77;;;10.18;;
16804;SDS011;8520;50.102;20.010;2023-08-20T13:52:22;11.10;;;10.30;;
16804;SDS011;8520;50.102;20.010;2023-08-20T13:54:50;11.35;;;10.57;;
16804;SDS011;8520;50.102;20.010;2023-08-20T13:57:19;12.60;;;12.00;;
16804;SDS011;8520;50.102;20.010;2023-08-20T13:59:47;11.35;;;10.68;;
16804;SDS011;8520;50.102;20.010;2023-08-20T14:02:15;11.20;;;10.40;;
16804;SDS011;8520;50.102;20.010;2023-08-20T14:04:43;9.48;;;8.95;;
16804;SDS011;8520;50.102;20.010;2023-08-20T14:07:11;9.50;;;9.00;;
16804;SDS011;8520;50.102;20.010;2023-08-20T14:09:39;9.90;;;9.30;;
16804;SDS011;8520;50.102;20.010;2023-08-20T14:12:07;10.27;;;9.68;;
16804;SDS011;8520;50.102;20.010;2023-08-20T14:14:37;9.52;;;9.00;;
16804;SDS011;8520;50.102;20.010;2023-08-20T14:17:05;9.60;;;9.10;;
16804;SDS011;8520;50.102;20.010;2023-08-20T14:19:33;9.05;;;8.55;;
16804;SDS011;8520;50.102;20.010;2023-08-20T14:22:01;10.18;;;9.68;;
16804;SDS011;8520;50.102;20.010;2023-08-20T14:24:29;8.55;;;8.05;;